sensor_id;sensor_type;location;lat;lon;timestamp;P1;durP1;ratioP1;P2;durP2;ratioP2
13279;SDS011;6708;49.814;8.652;2023-02-08T00:01:45;5.80;;;5.30;;
13279;SDS011;6708;49.814;8.652;2023-02-08T00:04:13;5.80;;;5.30;;
13279;SDS011;6708;49.814;8.652;2023-02-08T00:06:42;5.60;;;5.07;;
13279;SDS011;6708;49.814;8.652;2023-02-08T00:09:11;6.10;;;5.60;;
13279;SDS011;6708;49.814;8.652;2023-02-08T00:11:41;7.37;;;6.27;;
13279;SDS011;6708;49.814;8.652;2023-02-08T00:14:09;5.10;;;4.63;;
13279;SDS011;6708;49.814;8.652;2023-02-08T00:16:41;5.67;;;5.17;;
13279;SDS011;6708;49.814;8.652;2023-02-08T00:19:09;6.03;;;5.50;;
13279;SDS011;6708;49.814;8.652;2023-02-08T00:21:38;6.17;;;4.87;;
13279;SDS011;6708;49.814;8.652;2023-02-08T00:24:07;5.50;;;5.00;;
13279;SDS011;6708;49.814;8.652;2023-02-08T00:26:35;6.57;;;5.30;;
13279;SDS011;6708;49.814;8.652;2023-02-08T00:29:04;5.13;;;4.60;;
13279;SDS011;6708;49.814;8.652;2023-02-08T00:31:33;5.03;;;4.63;;
13279;SDS011;6708;49.814;8.652;2023-02-08T00:34:05;5.50;;;5.00;;
13279;SDS011;6708;49.814;8.652;2023-02-08T00:36:34;4.37;;;3.97;;
13279;SDS011;6708;49.814;8.652;2023-02-08T00:39:02;5.27;;;4.77;;
13279;SDS011;6708;49.814;8.652;2023-02-08T00:41:31;4.40;;;4.03;;
13279;SDS011;6708;49.814;8.652;2023-02-08T00:44:00;4.47;;;4.07;;
13279;SDS011;6708;49.814;8.652;2023-02-08T00:46:28;5.20;;;4.77;;
13279;SDS011;6708;49.814;8.652;2023-02-08T00:48:57;8.17;;;5.27;;
13279;SDS011;6708;49.814;8.652;2023-02-08T00:51:29;4.70;;;4.30;;
13279;SDS011;6708;49.814;8.652;2023-02-08T00:53:58;4.90;;;4.27;;
13279;SDS011;6708;49.814;8.652;2023-02-08T00:56:27;5.93;;;4.80;;
13279;SDS011;6708;49.814;8.652;2023-02-08T00:58:58;8.97;;;5.93;;
13279;SDS011;6708;49.814;8.652;2023-02-08T01:01:26;7.00;;;5.07;;
13279;SDS011;6708;49.814;8.652;2023-02-08T01:03:54;6.60;;;5.37;;
13279;SDS011;6708;49.814;8.652;2023-02-08T01:06:25;5.87;;;5.33;;
13279;SDS011;6708;49.814;8.652;2023-02-08T01:08:57;5.40;;;4.87;;
13279;SDS011;6708;49.814;8.652;2023-02-08T01:11:26;6.17;;;4.77;;
13279;SDS011;6708;49.814;8.652;2023-02-08T01:13:55;6.23;;;4.73;;
13279;SDS011;6708;49.814;8.652;2023-02-08T01:16:26;5.70;;;4.97;;
13279;SDS011;6708;49.814;8.652;2023-02-08T01:18:55;11.10;;;5.27;;
13279;SDS011;6708;49.814;8.652;2023-02-08T01:21:26;6.10;;;4.80;;
13279;SDS011;6708;49.814;8.652;2023-02-08T01:23:59;5.00;;;4.23;;
13279;SDS011;6708;49.814;8.652;2023-02-08T01:26:28;7.43;;;4.93;;
13279;SDS011;6708;49.814;8.652;2023-02-08T01:28:57;5.33;;;4.83;;
13279;SDS011;6708;49.814;8.652;2023-02-08T01:31:27;5.13;;;4.67;;
13279;SDS011;6708;49.814;8.652;2023-02-08T01:33:58;5.80;;;5.30;;
13279;SDS011;6708;49.814;8.652;2023-02-08T01:36:27;6.37;;;5.57;;
13279;SDS011;6708;49.814;8.652;2023-02-08T01:38:59;5.40;;;4.90;;
13279;SDS011;6708;49.814;8.652;2023-02-08T01:41:29;8.57;;;5.90;;
13279;SDS011;6708;49.814;8.652;2023-02-08T01:47:07;5.83;;;4.63;;
13279;SDS011;6708;49.814;8.652;2023-02-08T01:49:35;5.57;;;4.93;;
13279;SDS011;6708;49.814;8.652;2023-02-08T01:52:05;6.10;;;4.67;;
13279;SDS011;6708;49.814;8.652;2023-02-08T01:54:38;4.80;;;4.30;;
13279;SDS011;6708;49.814;8.652;2023-02-08T01:57:09;6.17;;;5.23;;
13279;SDS011;6708;49.814;8.652;2023-02-08T01:59:39;7.10;;;6.10;;
13279;SDS011;6708;49.814;8.652;2023-02-08T02:02:13;4.50;;;4.10;;
13279;SDS011;6708;49.814;8.652;2023-02-08T02:04:45;5.27;;;4.37;;
13279;SDS011;6708;49.814;8.652;2023-02-08T02:07:14;4.20;;;3.90;;
13279;SDS011;6708;49.814;8.652;2023-02-08T02:09:46;4.93;;;4.50;;
13279;SDS011;6708;49.814;8.652;2023-02-08T02:12:18;5.27;;;4.77;;
13279;SDS011;6708;49.814;8.652;2023-02-08T02:14:49;4.83;;;4.30;;
13279;SDS011;6708;49.814;8.652;2023-02-08T02:17:18;6.27;;;4.57;;
13279;SDS011;6708;49.814;8.652;2023-02-08T02:19:49;5.53;;;5.03;;
13279;SDS011;6708;49.814;8.652;2023-02-08T02:25:29;7.80;;;4.97;;
13279;SDS011;6708;49.814;8.652;2023-02-08T02:28:30;6.80;;;5.60;;
13279;SDS011;6708;49.814;8.652;2023-02-08T02:34:06;6.17;;;5.47;;
13279;SDS011;6708;49.814;8.652;2023-02-08T02:36:39;7.40;;;5.33;;
13279;SDS011;6708;49.814;8.652;2023-02-08T02:39:14;6.00;;;5.40;;
13279;SDS011;6708;49.814;8.652;2023-02-08T02:41:50;6.27;;;5.47;;
13279;SDS011;6708;49.814;8.652;2023-02-08T02:44:37;8.23;;;5.37;;
13279;SDS011;6708;49.814;8.652;2023-02-08T02:47:14;7.50;;;5.90;;
13279;SDS011;6708;49.814;8.652;2023-02-08T02:49:55;5.77;;;5.20;;
13279;SDS011;6708;49.814;8.652;2023-02-08T02:52:30;7.53;;;5.70;;
13279;SDS011;6708;49.814;8.652;2023-02-08T02:55:04;8.20;;;6.63;;
13279;SDS011;6708;49.814;8.652;2023-02-08T02:57:35;8.10;;;6.47;;
13279;SDS011;6708;49.814;8.652;2023-02-08T03:00:05;7.57;;;5.73;;
13279;SDS011;6708;49.814;8.652;2023-02-08T03:02:37;6.57;;;5.90;;
13279;SDS011;6708;49.814;8.652;2023-02-08T03:05:08;6.87;;;5.40;;
13279;SDS011;6708;49.814;8.652;2023-02-08T03:07:48;9.87;;;5.10;;
13279;SDS011;6708;49.814;8.652;2023-02-08T03:10:34;5.90;;;5.30;;
13279;SDS011;6708;49.814;8.652;2023-02-08T03:13:22;6.93;;;5.13;;
13279;SDS011;6708;49.814;8.652;2023-02-08T03:15:59;6.17;;;5.57;;
13279;SDS011;6708;49.814;8.652;2023-02-08T03:18:33;7.77;;;5.30;;
13279;SDS011;6708;49.814;8.652;2023-02-08T03:21:05;5.50;;;4.77;;
13279;SDS011;6708;49.814;8.652;2023-02-08T03:23:38;5.83;;;4.80;;
13279;SDS011;6708;49.814;8.652;2023-02-08T03:26:09;6.67;;;5.97;;
13279;SDS011;6708;49.814;8.652;2023-02-08T03:28:45;7.20;;;4.87;;
13279;SDS011;6708;49.814;8.652;2023-02-08T03:31:17;7.53;;;5.90;;
13279;SDS011;6708;49.814;8.652;2023-02-08T03:33:52;5.30;;;4.87;;
13279;SDS011;6708;49.814;8.652;2023-02-08T03:36:26;6.67;;;5.73;;
13279;SDS011;6708;49.814;8.652;2023-02-08T03:39:00;5.73;;;5.17;;
13279;SDS011;6708;49.814;8.652;2023-02-08T03:41:35;6.10;;;5.60;;
13279;SDS011;6708;49.814;8.652;2023-02-08T03:44:06;6.37;;;5.67;;
13279;SDS011;6708;49.814;8.652;2023-02-08T03:46:38;5.83;;;5.30;;
13279;SDS011;6708;49.814;8.652;2023-02-08T03:49:12;6.03;;;5.40;;
13279;SDS011;6708;49.814;8.652;2023-02-08T03:51:45;7.00;;;6.17;;
13279;SDS011;6708;49.814;8.652;2023-02-08T03:54:14;9.00;;;6.00;;
13279;SDS011;6708;49.814;8.652;2023-02-08T03:56:47;8.10;;;6.40;;
13279;SDS011;6708;49.814;8.652;2023-02-08T03:59:20;9.20;;;5.47;;
13279;SDS011;6708;49.814;8.652;2023-02-08T04:01:52;7.53;;;5.57;;
13279;SDS011;6708;49.814;8.652;2023-02-08T04:04:28;5.47;;;5.00;;
13279;SDS011;6708;49.814;8.652;2023-02-08T04:06:58;10.10;;;5.57;;
13279;SDS011;6708;49.814;8.652;2023-02-08T04:09:27;8.90;;;5.40;;
13279;SDS011;6708;49.814;8.652;2023-02-08T04:11:55;5.57;;;5.03;;
13279;SDS011;6708;49.814;8.652;2023-02-08T04:14:24;5.63;;;5.10;;
13279;SDS011;6708;49.814;8.652;2023-02-08T04:16:53;5.43;;;4.93;;
13279;SDS011;6708;49.814;8.652;2023-02-08T04:19:21;6.47;;;5.70;;
13279;SDS011;6708;49.814;8.652;2023-02-08T04:21:52;6.27;;;5.70;;
13279;SDS011;6708;49.814;8.652;2023-02-08T04:24:21;6.03;;;5.43;;
13279;SDS011;6708;49.814;8.652;2023-02-08T04:26:50;7.80;;;6.23;;
13279;SDS011;6708;49.814;8.652;2023-02-08T04:29:18;8.07;;;5.33;;
13279;SDS011;6708;49.814;8.652;2023-02-08T04:31:47;5.27;;;4.87;;
13279;SDS011;6708;49.814;8.652;2023-02-08T04:34:15;6.23;;;5.07;;
13279;SDS011;6708;49.814;8.652;2023-02-08T04:36:44;5.80;;;5.10;;
13279;SDS011;6708;49.814;8.652;2023-02-08T04:39:15;6.10;;;5.50;;
13279;SDS011;6708;49.814;8.652;2023-02-08T04:41:43;9.20;;;6.20;;
13279;SDS011;6708;49.814;8.652;2023-02-08T04:44:12;4.87;;;4.40;;
13279;SDS011;6708;49.814;8.652;2023-02-08T04:46:40;7.17;;;4.97;;
13279;SDS011;6708;49.814;8.652;2023-02-08T04:49:09;7.57;;;5.10;;
13279;SDS011;6708;49.814;8.652;2023-02-08T04:51:37;7.00;;;4.60;;
13279;SDS011;6708;49.814;8.652;2023-02-08T04:54:06;9.03;;;5.13;;
13279;SDS011;6708;49.814;8.652;2023-02-08T04:56:38;6.63;;;4.87;;
13279;SDS011;6708;49.814;8.652;2023-02-08T04:59:07;6.20;;;5.60;;
13279;SDS011;6708;49.814;8.652;2023-02-08T05:01:36;5.90;;;5.10;;
13279;SDS011;6708;49.814;8.652;2023-02-08T05:04:04;5.73;;;5.20;;
13279;SDS011;6708;49.814;8.652;2023-02-08T05:06:33;5.73;;;4.93;;
13279;SDS011;6708;49.814;8.652;2023-02-08T05:09:02;5.87;;;5.30;;
13279;SDS011;6708;49.814;8.652;2023-02-08T05:11:30;7.83;;;5.20;;
13279;SDS011;6708;49.814;8.652;2023-02-08T05:14:01;6.00;;;5.40;;
13279;SDS011;6708;49.814;8.652;2023-02-08T05:16:30;9.07;;;5.30;;
13279;SDS011;6708;49.814;8.652;2023-02-08T05:18:59;6.87;;;5.43;;
13279;SDS011;6708;49.814;8.652;2023-02-08T05:21:27;6.70;;;4.80;;
13279;SDS011;6708;49.814;8.652;2023-02-08T05:23:56;6.07;;;5.30;;
13279;SDS011;6708;49.814;8.652;2023-02-08T05:26:25;6.37;;;5.77;;
13279;SDS011;6708;49.814;8.652;2023-02-08T05:28:53;5.97;;;5.40;;
13279;SDS011;6708;49.814;8.652;2023-02-08T05:31:25;6.97;;;5.50;;
13279;SDS011;6708;49.814;8.652;2023-02-08T05:33:54;5.67;;;5.10;;
13279;SDS011;6708;49.814;8.652;2023-02-08T05:36:22;7.20;;;5.13;;
13279;SDS011;6708;49.814;8.652;2023-02-08T05:38:50;6.03;;;5.43;;
13279;SDS011;6708;49.814;8.652;2023-02-08T05:41:20;6.03;;;4.70;;
13279;SDS011;6708;49.814;8.652;2023-02-08T05:43:48;6.47;;;4.50;;
13279;SDS011;6708;49.814;8.652;2023-02-08T05:46:17;7.63;;;5.67;;
13279;SDS011;6708;49.814;8.652;2023-02-08T05:48:48;5.53;;;5.03;;
13279;SDS011;6708;49.814;8.652;2023-02-08T05:51:17;5.27;;;4.77;;
13279;SDS011;6708;49.814;8.652;2023-02-08T05:53:46;6.27;;;5.03;;
13279;SDS011;6708;49.814;8.652;2023-02-08T05:56:15;6.30;;;5.27;;
13279;SDS011;6708;49.814;8.652;2023-02-08T05:58:43;5.50;;;4.83;;
13279;SDS011;6708;49.814;8.652;2023-02-08T06:01:12;5.60;;;5.00;;
13279;SDS011;6708;49.814;8.652;2023-02-08T06:03:42;5.03;;;4.57;;
13279;SDS011;6708;49.814;8.652;2023-02-08T06:06:18;5.33;;;4.80;;
13279;SDS011;6708;49.814;8.652;2023-02-08T06:08:46;7.23;;;4.97;;
13279;SDS011;6708;49.814;8.652;2023-02-08T06:11:15;7.40;;;5.97;;
13279;SDS011;6708;49.814;8.652;2023-02-08T06:13:43;4.77;;;4.37;;
13279;SDS011;6708;49.814;8.652;2023-02-08T06:16:13;5.23;;;4.63;;
13279;SDS011;6708;49.814;8.652;2023-02-08T06:18:42;7.07;;;4.97;;
13279;SDS011;6708;49.814;8.652;2023-02-08T06:21:11;5.07;;;4.40;;
13279;SDS011;6708;49.814;8.652;2023-02-08T06:23:42;5.97;;;4.23;;
13279;SDS011;6708;49.814;8.652;2023-02-08T06:26:11;5.33;;;4.90;;
13279;SDS011;6708;49.814;8.652;2023-02-08T06:28:39;5.37;;;4.87;;
13279;SDS011;6708;49.814;8.652;2023-02-08T06:31:08;5.70;;;5.20;;
13279;SDS011;6708;49.814;8.652;2023-02-08T06:33:36;5.97;;;4.43;;
13279;SDS011;6708;49.814;8.652;2023-02-08T06:36:05;5.03;;;4.57;;
13279;SDS011;6708;49.814;8.652;2023-02-08T06:38:34;5.00;;;4.40;;
13279;SDS011;6708;49.814;8.652;2023-02-08T06:41:06;5.43;;;4.83;;
13279;SDS011;6708;49.814;8.652;2023-02-08T06:43:34;5.03;;;4.47;;
13279;SDS011;6708;49.814;8.652;2023-02-08T06:46:05;5.47;;;4.90;;
13279;SDS011;6708;49.814;8.652;2023-02-08T06:48:34;6.30;;;5.50;;
13279;SDS011;6708;49.814;8.652;2023-02-08T06:51:04;4.90;;;4.40;;
13279;SDS011;6708;49.814;8.652;2023-02-08T06:53:32;5.70;;;5.20;;
13279;SDS011;6708;49.814;8.652;2023-02-08T06:56:01;7.37;;;4.73;;
13279;SDS011;6708;49.814;8.652;2023-02-08T06:58:32;6.37;;;4.73;;
13279;SDS011;6708;49.814;8.652;2023-02-08T07:01:02;4.63;;;4.27;;
13279;SDS011;6708;49.814;8.652;2023-02-08T07:03:31;9.23;;;5.13;;
13279;SDS011;6708;49.814;8.652;2023-02-08T07:05:59;9.00;;;4.17;;
13279;SDS011;6708;49.814;8.652;2023-02-08T07:08:28;7.57;;;5.27;;
13279;SDS011;6708;49.814;8.652;2023-02-08T07:10:57;7.20;;;5.40;;
13279;SDS011;6708;49.814;8.652;2023-02-08T07:13:25;6.07;;;5.00;;
13279;SDS011;6708;49.814;8.652;2023-02-08T07:15:57;6.93;;;4.97;;
13279;SDS011;6708;49.814;8.652;2023-02-08T07:18:25;6.17;;;5.53;;
13279;SDS011;6708;49.814;8.652;2023-02-08T07:20:53;8.07;;;5.47;;
13279;SDS011;6708;49.814;8.652;2023-02-08T07:23:22;8.53;;;5.80;;
13279;SDS011;6708;49.814;8.652;2023-02-08T07:25:57;6.90;;;5.47;;
13279;SDS011;6708;49.814;8.652;2023-02-08T07:28:31;7.10;;;5.80;;
13279;SDS011;6708;49.814;8.652;2023-02-08T07:31:06;6.77;;;4.37;;
13279;SDS011;6708;49.814;8.652;2023-02-08T07:33:35;7.13;;;5.40;;
13279;SDS011;6708;49.814;8.652;2023-02-08T07:36:04;8.43;;;5.47;;
13279;SDS011;6708;49.814;8.652;2023-02-08T07:38:34;12.33;;;6.07;;
13279;SDS011;6708;49.814;8.652;2023-02-08T07:41:05;7.10;;;5.43;;
13279;SDS011;6708;49.814;8.652;2023-02-08T07:43:38;4.87;;;4.50;;
13279;SDS011;6708;49.814;8.652;2023-02-08T07:46:10;7.47;;;5.77;;
13279;SDS011;6708;49.814;8.652;2023-02-08T07:48:40;6.27;;;5.57;;
13279;SDS011;6708;49.814;8.652;2023-02-08T07:51:12;5.50;;;5.03;;
13279;SDS011;6708;49.814;8.652;2023-02-08T07:53:41;7.03;;;5.80;;
13279;SDS011;6708;49.814;8.652;2023-02-08T07:56:09;9.47;;;6.37;;
13279;SDS011;6708;49.814;8.652;2023-02-08T07:58:39;9.00;;;5.97;;
13279;SDS011;6708;49.814;8.652;2023-02-08T08:01:10;8.90;;;7.10;;
13279;SDS011;6708;49.814;8.652;2023-02-08T08:03:40;7.27;;;6.00;;
13279;SDS011;6708;49.814;8.652;2023-02-08T08:06:11;6.73;;;6.03;;
13279;SDS011;6708;49.814;8.652;2023-02-08T08:08:42;8.07;;;6.27;;
13279;SDS011;6708;49.814;8.652;2023-02-08T08:11:12;7.23;;;6.53;;
13279;SDS011;6708;49.814;8.652;2023-02-08T08:13:41;8.97;;;6.70;;
13279;SDS011;6708;49.814;8.652;2023-02-08T08:16:12;7.37;;;6.67;;
13279;SDS011;6708;49.814;8.652;2023-02-08T08:18:41;9.50;;;7.00;;
13279;SDS011;6708;49.814;8.652;2023-02-08T08:21:09;10.10;;;7.17;;
13279;SDS011;6708;49.814;8.652;2023-02-08T08:23:39;15.47;;;8.13;;
13279;SDS011;6708;49.814;8.652;2023-02-08T08:26:08;9.67;;;7.27;;
13279;SDS011;6708;49.814;8.652;2023-02-08T08:28:38;8.37;;;7.20;;
13279;SDS011;6708;49.814;8.652;2023-02-08T08:31:14;10.80;;;8.30;;
13279;SDS011;6708;49.814;8.652;2023-02-08T08:33:44;10.30;;;7.67;;
13279;SDS011;6708;49.814;8.652;2023-02-08T08:36:13;12.47;;;8.13;;
13279;SDS011;6708;49.814;8.652;2023-02-08T08:38:42;16.13;;;8.20;;
13279;SDS011;6708;49.814;8.652;2023-02-08T08:41:11;9.00;;;7.23;;
13279;SDS011;6708;49.814;8.652;2023-02-08T08:43:42;11.13;;;8.47;;
13279;SDS011;6708;49.814;8.652;2023-02-08T08:46:10;10.83;;;9.13;;
13279;SDS011;6708;49.814;8.652;2023-02-08T08:48:43;8.90;;;7.90;;
13279;SDS011;6708;49.814;8.652;2023-02-08T08:51:15;8.93;;;8.03;;
13279;SDS011;6708;49.814;8.652;2023-02-08T08:53:44;9.13;;;8.13;;
13279;SDS011;6708;49.814;8.652;2023-02-08T08:56:13;12.27;;;7.40;;
13279;SDS011;6708;49.814;8.652;2023-02-08T08:58:44;8.67;;;7.73;;
13279;SDS011;6708;49.814;8.652;2023-02-08T09:01:13;10.00;;;7.90;;
13279;SDS011;6708;49.814;8.652;2023-02-08T09:03:44;8.87;;;7.80;;
13279;SDS011;6708;49.814;8.652;2023-02-08T09:06:12;10.40;;;8.43;;
13279;SDS011;6708;49.814;8.652;2023-02-08T09:08:41;13.57;;;8.50;;
13279;SDS011;6708;49.814;8.652;2023-02-08T09:11:11;9.93;;;7.47;;
13279;SDS011;6708;49.814;8.652;2023-02-08T09:13:41;9.23;;;7.90;;
13279;SDS011;6708;49.814;8.652;2023-02-08T09:16:11;10.40;;;8.03;;
13279;SDS011;6708;49.814;8.652;2023-02-08T09:18:41;8.53;;;7.67;;
13279;SDS011;6708;49.814;8.652;2023-02-08T09:21:14;11.43;;;8.77;;
13279;SDS011;6708;49.814;8.652;2023-02-08T09:23:44;8.53;;;7.60;;
13279;SDS011;6708;49.814;8.652;2023-02-08T09:26:15;12.17;;;8.03;;
13279;SDS011;6708;49.814;8.652;2023-02-08T09:28:44;10.80;;;8.30;;
13279;SDS011;6708;49.814;8.652;2023-02-08T09:31:14;14.43;;;9.37;;
13279;SDS011;6708;49.814;8.652;2023-02-08T09:33:50;14.20;;;8.70;;
13279;SDS011;6708;49.814;8.652;2023-02-08T09:36:20;9.33;;;7.93;;
13279;SDS011;6708;49.814;8.652;2023-02-08T09:38:52;10.90;;;7.80;;
13279;SDS011;6708;49.814;8.652;2023-02-08T09:41:27;10.40;;;7.80;;
13279;SDS011;6708;49.814;8.652;2023-02-08T09:44:09;10.63;;;7.77;;
13279;SDS011;6708;49.814;8.652;2023-02-08T09:46:44;9.57;;;7.60;;
13279;SDS011;6708;49.814;8.652;2023-02-08T09:49:21;9.57;;;7.67;;
13279;SDS011;6708;49.814;8.652;2023-02-08T09:51:55;12.10;;;7.17;;
13279;SDS011;6708;49.814;8.652;2023-02-08T09:54:27;11.33;;;7.60;;
13279;SDS011;6708;49.814;8.652;2023-02-08T09:57:05;9.23;;;7.73;;
13279;SDS011;6708;49.814;8.652;2023-02-08T09:59:39;9.40;;;8.00;;
13279;SDS011;6708;49.814;8.652;2023-02-08T10:02:16;10.37;;;7.50;;
13279;SDS011;6708;49.814;8.652;2023-02-08T10:04:56;8.13;;;6.70;;
13279;SDS011;6708;49.814;8.652;2023-02-08T10:07:27;8.30;;;7.23;;
13279;SDS011;6708;49.814;8.652;2023-02-08T10:09:57;7.77;;;6.83;;
13279;SDS011;6708;49.814;8.652;2023-02-08T10:12:35;9.57;;;7.33;;
13279;SDS011;6708;49.814;8.652;2023-02-08T10:15:08;8.47;;;7.57;;
13279;SDS011;6708;49.814;8.652;2023-02-08T10:17:50;7.93;;;6.70;;
13279;SDS011;6708;49.814;8.652;2023-02-08T10:20:31;10.33;;;7.80;;
13279;SDS011;6708;49.814;8.652;2023-02-08T10:23:20;9.43;;;7.50;;
13279;SDS011;6708;49.814;8.652;2023-02-08T10:26:05;7.63;;;6.90;;
13279;SDS011;6708;49.814;8.652;2023-02-08T10:28:45;10.70;;;7.83;;
13279;SDS011;6708;49.814;8.652;2023-02-08T10:31:25;12.43;;;8.23;;
13279;SDS011;6708;49.814;8.652;2023-02-08T10:34:07;7.90;;;6.77;;
13279;SDS011;6708;49.814;8.652;2023-02-08T10:36:41;8.47;;;7.23;;
13279;SDS011;6708;49.814;8.652;2023-02-08T10:39:23;9.87;;;6.87;;
13279;SDS011;6708;49.814;8.652;2023-02-08T10:41:58;10.70;;;7.20;;
13279;SDS011;6708;49.814;8.652;2023-02-08T10:44:29;15.67;;;7.60;;
13279;SDS011;6708;49.814;8.652;2023-02-08T10:47:05;19.97;;;8.43;;
13279;SDS011;6708;49.814;8.652;2023-02-08T10:49:37;8.27;;;7.47;;
13279;SDS011;6708;49.814;8.652;2023-02-08T10:52:10;8.77;;;7.97;;
13279;SDS011;6708;49.814;8.652;2023-02-08T10:54:39;11.40;;;7.63;;
13279;SDS011;6708;49.814;8.652;2023-02-08T10:57:09;10.90;;;7.63;;
13279;SDS011;6708;49.814;8.652;2023-02-08T10:59:45;8.10;;;6.80;;
13279;SDS011;6708;49.814;8.652;2023-02-08T11:02:19;8.37;;;7.47;;
13279;SDS011;6708;49.814;8.652;2023-02-08T11:04:57;7.60;;;6.80;;
13279;SDS011;6708;49.814;8.652;2023-02-08T11:07:30;12.43;;;7.20;;
13279;SDS011;6708;49.814;8.652;2023-02-08T11:12:55;9.63;;;7.03;;
13279;SDS011;6708;49.814;8.652;2023-02-08T11:15:26;11.87;;;7.33;;
13279;SDS011;6708;49.814;8.652;2023-02-08T11:17:57;7.37;;;6.60;;
13279;SDS011;6708;49.814;8.652;2023-02-08T11:20:29;9.03;;;6.87;;
13279;SDS011;6708;49.814;8.652;2023-02-08T11:23:04;8.57;;;6.57;;
13279;SDS011;6708;49.814;8.652;2023-02-08T11:25:34;12.03;;;7.50;;
13279;SDS011;6708;49.814;8.652;2023-02-08T11:28:05;7.63;;;6.40;;
13279;SDS011;6708;49.814;8.652;2023-02-08T11:30:59;10.90;;;7.30;;
13279;SDS011;6708;49.814;8.652;2023-02-08T11:33:30;8.97;;;7.07;;
13279;SDS011;6708;49.814;8.652;2023-02-08T11:36:00;8.23;;;6.50;;
13279;SDS011;6708;49.814;8.652;2023-02-08T11:38:43;8.60;;;7.37;;
13279;SDS011;6708;49.814;8.652;2023-02-08T11:41:13;9.57;;;7.13;;
13279;SDS011;6708;49.814;8.652;2023-02-08T11:43:48;7.70;;;6.83;;
13279;SDS011;6708;49.814;8.652;2023-02-08T11:46:22;7.10;;;6.40;;
13279;SDS011;6708;49.814;8.652;2023-02-08T11:48:52;8.70;;;6.83;;
13279;SDS011;6708;49.814;8.652;2023-02-08T11:51:23;8.77;;;6.87;;
13279;SDS011;6708;49.814;8.652;2023-02-08T11:53:58;7.63;;;6.83;;
13279;SDS011;6708;49.814;8.652;2023-02-08T11:56:27;11.67;;;6.90;;
13279;SDS011;6708;49.814;8.652;2023-02-08T11:59:04;7.67;;;6.63;;
13279;SDS011;6708;49.814;8.652;2023-02-08T12:01:37;13.23;;;6.83;;
13279;SDS011;6708;49.814;8.652;2023-02-08T12:04:08;8.10;;;6.43;;
13279;SDS011;6708;49.814;8.652;2023-02-08T12:09:37;12.87;;;6.33;;
13279;SDS011;6708;49.814;8.652;2023-02-08T12:12:24;6.73;;;6.03;;
13279;SDS011;6708;49.814;8.652;2023-02-08T12:15:02;7.60;;;6.07;;
13279;SDS011;6708;49.814;8.652;2023-02-08T12:20:35;7.00;;;6.07;;
13279;SDS011;6708;49.814;8.652;2023-02-08T12:23:13;7.67;;;6.83;;
13279;SDS011;6708;49.814;8.652;2023-02-08T12:25:55;8.17;;;6.67;;
13279;SDS011;6708;49.814;8.652;2023-02-08T12:28:28;8.80;;;6.70;;
13279;SDS011;6708;49.814;8.652;2023-02-08T12:31:06;8.47;;;6.40;;
13279;SDS011;6708;49.814;8.652;2023-02-08T12:33:43;6.93;;;6.23;;
13279;SDS011;6708;49.814;8.652;2023-02-08T12:36:19;8.43;;;6.50;;
13279;SDS011;6708;49.814;8.652;2023-02-08T12:42:09;9.37;;;6.27;;
13279;SDS011;6708;49.814;8.652;2023-02-08T12:44:52;9.27;;;6.60;;
13279;SDS011;6708;49.814;8.652;2023-02-08T12:47:41;7.13;;;6.53;;
13279;SDS011;6708;49.814;8.652;2023-02-08T12:50:19;10.10;;;7.17;;
13279;SDS011;6708;49.814;8.652;2023-02-08T12:52:51;7.33;;;6.57;;
13279;SDS011;6708;49.814;8.652;2023-02-08T12:55:22;7.33;;;6.40;;
13279;SDS011;6708;49.814;8.652;2023-02-08T12:57:56;6.43;;;5.77;;
13279;SDS011;6708;49.814;8.652;2023-02-08T13:00:27;8.03;;;5.87;;
13279;SDS011;6708;49.814;8.652;2023-02-08T13:02:58;10.27;;;6.53;;
13279;SDS011;6708;49.814;8.652;2023-02-08T13:05:32;8.03;;;6.60;;
13279;SDS011;6708;49.814;8.652;2023-02-08T13:08:05;6.77;;;6.10;;
13279;SDS011;6708;49.814;8.652;2023-02-08T13:10:37;8.47;;;6.67;;
13279;SDS011;6708;49.814;8.652;2023-02-08T13:13:12;7.03;;;5.80;;
13279;SDS011;6708;49.814;8.652;2023-02-08T13:15:44;14.87;;;6.33;;
13279;SDS011;6708;49.814;8.652;2023-02-08T13:18:14;7.33;;;6.53;;
13279;SDS011;6708;49.814;8.652;2023-02-08T13:20:46;6.43;;;5.77;;
13279;SDS011;6708;49.814;8.652;2023-02-08T13:23:19;7.53;;;5.50;;
13279;SDS011;6708;49.814;8.652;2023-02-08T13:25:51;8.00;;;6.13;;
13279;SDS011;6708;49.814;8.652;2023-02-08T13:28:25;7.07;;;6.23;;
13279;SDS011;6708;49.814;8.652;2023-02-08T13:30:55;7.07;;;6.40;;
13279;SDS011;6708;49.814;8.652;2023-02-08T13:33:29;6.90;;;6.20;;
13279;SDS011;6708;49.814;8.652;2023-02-08T13:36:01;8.90;;;6.33;;
13279;SDS011;6708;49.814;8.652;2023-02-08T13:38:31;11.63;;;6.30;;
13279;SDS011;6708;49.814;8.652;2023-02-08T13:41:05;8.40;;;6.47;;
13279;SDS011;6708;49.814;8.652;2023-02-08T13:43:45;6.70;;;5.77;;
13279;SDS011;6708;49.814;8.652;2023-02-08T13:46:17;6.43;;;5.87;;
13279;SDS011;6708;49.814;8.652;2023-02-08T13:48:46;7.60;;;5.97;;
13279;SDS011;6708;49.814;8.652;2023-02-08T13:54:26;9.07;;;5.73;;
13279;SDS011;6708;49.814;8.652;2023-02-08T13:56:56;8.10;;;5.70;;
13279;SDS011;6708;49.814;8.652;2023-02-08T13:59:29;7.17;;;6.23;;
13279;SDS011;6708;49.814;8.652;2023-02-08T14:02:16;7.33;;;6.50;;
13279;SDS011;6708;49.814;8.652;2023-02-08T14:04:48;6.20;;;5.67;;
13279;SDS011;6708;49.814;8.652;2023-02-08T14:07:20;9.70;;;6.63;;
13279;SDS011;6708;49.814;8.652;2023-02-08T14:12:50;8.03;;;5.40;;
13279;SDS011;6708;49.814;8.652;2023-02-08T14:15:30;9.37;;;6.60;;
13279;SDS011;6708;49.814;8.652;2023-02-08T14:18:03;6.53;;;5.87;;
13279;SDS011;6708;49.814;8.652;2023-02-08T14:20:43;7.33;;;5.57;;
13279;SDS011;6708;49.814;8.652;2023-02-08T14:23:26;7.10;;;6.27;;
13279;SDS011;6708;49.814;8.652;2023-02-08T14:25:56;6.80;;;5.87;;
13279;SDS011;6708;49.814;8.652;2023-02-08T14:28:27;6.70;;;5.27;;
13279;SDS011;6708;49.814;8.652;2023-02-08T14:31:02;6.50;;;5.73;;
13279;SDS011;6708;49.814;8.652;2023-02-08T14:33:36;7.00;;;6.00;;
13279;SDS011;6708;49.814;8.652;2023-02-08T14:36:15;5.90;;;5.40;;
13279;SDS011;6708;49.814;8.652;2023-02-08T14:38:50;7.50;;;6.20;;
13279;SDS011;6708;49.814;8.652;2023-02-08T14:50:38;7.10;;;6.40;;
13279;SDS011;6708;49.814;8.652;2023-02-08T14:53:16;6.93;;;5.90;;
13279;SDS011;6708;49.814;8.652;2023-02-08T14:55:49;7.90;;;6.13;;
13279;SDS011;6708;49.814;8.652;2023-02-08T14:58:27;9.70;;;6.70;;
13279;SDS011;6708;49.814;8.652;2023-02-08T15:00:59;6.27;;;5.73;;
13279;SDS011;6708;49.814;8.652;2023-02-08T15:03:29;9.97;;;6.20;;
13279;SDS011;6708;49.814;8.652;2023-02-08T15:08:57;9.43;;;6.73;;
13279;SDS011;6708;49.814;8.652;2023-02-08T15:11:27;9.90;;;6.33;;
13279;SDS011;6708;49.814;8.652;2023-02-08T15:13:57;7.47;;;6.07;;
13279;SDS011;6708;49.814;8.652;2023-02-08T15:16:29;7.97;;;6.07;;
13279;SDS011;6708;49.814;8.652;2023-02-08T15:19:01;6.37;;;5.60;;
13279;SDS011;6708;49.814;8.652;2023-02-08T15:21:34;11.33;;;6.47;;
13279;SDS011;6708;49.814;8.652;2023-02-08T15:24:12;7.53;;;6.30;;
13279;SDS011;6708;49.814;8.652;2023-02-08T15:26:45;11.53;;;6.17;;
13279;SDS011;6708;49.814;8.652;2023-02-08T15:29:16;6.43;;;5.83;;
13279;SDS011;6708;49.814;8.652;2023-02-08T15:31:45;7.03;;;5.73;;
13279;SDS011;6708;49.814;8.652;2023-02-08T15:34:14;10.73;;;5.37;;
13279;SDS011;6708;49.814;8.652;2023-02-08T15:36:47;8.27;;;5.93;;
13279;SDS011;6708;49.814;8.652;2023-02-08T15:39:23;8.30;;;5.70;;
13279;SDS011;6708;49.814;8.652;2023-02-08T15:41:55;8.83;;;6.27;;
13279;SDS011;6708;49.814;8.652;2023-02-08T15:44:25;6.17;;;5.17;;
13279;SDS011;6708;49.814;8.652;2023-02-08T15:46:55;7.23;;;5.60;;
13279;SDS011;6708;49.814;8.652;2023-02-08T15:49:26;6.73;;;5.90;;
13279;SDS011;6708;49.814;8.652;2023-02-08T15:51:59;6.37;;;5.47;;
13279;SDS011;6708;49.814;8.652;2023-02-08T15:54:31;6.30;;;5.47;;
13279;SDS011;6708;49.814;8.652;2023-02-08T15:57:01;6.03;;;5.40;;
13279;SDS011;6708;49.814;8.652;2023-02-08T15:59:37;6.57;;;5.87;;
13279;SDS011;6708;49.814;8.652;2023-02-08T16:02:13;10.33;;;6.17;;
13279;SDS011;6708;49.814;8.652;2023-02-08T16:04:47;6.63;;;6.00;;
13279;SDS011;6708;49.814;8.652;2023-02-08T16:07:21;7.40;;;5.43;;
13279;SDS011;6708;49.814;8.652;2023-02-08T16:09:56;6.87;;;5.60;;